sensor_id;sensor_type;location;lat;lon;timestamp;pressure;altitude;pressure_sealevel;temperature;humidity
28648;BME280;17137;51.494;-0.262;2022-11-20T00:00:22;50545.11;;;-145.72;83.04
28648;BME280;17137;51.494;-0.262;2022-11-20T00:00:52;50546.46;;;-145.72;82.63
28648;BME280;17137;51.494;-0.262;2022-11-20T00:01:24;50547.57;;;-145.72;82.29
28648;BME280;17137;51.494;-0.262;2022-11-20T00:01:55;50543.01;;;-145.72;82.16
28648;BME280;17137;51.494;-0.262;2022-11-20T00:02:25;50545.11;;;-145.72;82.45
28648;BME280;17137;51.494;-0.262;2022-11-20T00:02:56;50541.90;;;-145.72;82.53
28648;BME280;17137;51.494;-0.262;2022-11-20T00:03:26;50530.81;;;-145.72;82.23
28648;BME280;17137;51.494;-0.262;2022-11-20T00:03:57;50530.44;;;-145.72;82.04
28648;BME280;17137;51.494;-0.262;2022-11-20T00:04:28;50561.38;;;-145.72;82.61
28648;BME280;17137;51.494;-0.262;2022-11-20T00:04:59;50547.08;;;-145.72;82.89
28648;BME280;17137;51.494;-0.262;2022-11-20T00:05:31;50549.30;;;-145.72;82.60
28648;BME280;17137;51.494;-0.262;2022-11-20T00:06:03;50542.39;;;-145.72;82.24
28648;BME280;17137;51.494;-0.262;2022-11-20T00:06:33;50529.45;;;-145.72;82.18
28648;BME280;17137;51.494;-0.262;2022-11-20T00:07:03;50544.00;;;-145.72;82.39
28648;BME280;17137;51.494;-0.262;2022-11-20T00:07:34;50544.98;;;-145.72;82.72
28648;BME280;17137;51.494;-0.262;2022-11-20T00:08:04;50551.89;;;-145.72;82.90
28648;BME280;17137;51.494;-0.262;2022-11-20T00:08:35;50547.94;;;-145.72;82.88
28648;BME280;17137;51.494;-0.262;2022-11-20T00:09:06;50550.90;;;-145.72;83.10
28648;BME280;17137;51.494;-0.262;2022-11-20T00:09:36;50550.65;;;-145.72;83.35
28648;BME280;17137;51.494;-0.262;2022-11-20T00:10:07;50559.28;;;-145.72;83.47
28648;BME280;17137;51.494;-0.262;2022-11-20T00:10:37;50547.70;;;-145.72;83.45
28648;BME280;17137;51.494;-0.262;2022-11-20T00:11:14;50552.13;;;-145.72;83.46
28648;BME280;17137;51.494;-0.262;2022-11-20T00:11:45;50545.35;;;-145.72;83.23
28648;BME280;17137;51.494;-0.262;2022-11-20T00:12:15;50530.93;;;-145.72;83.09
28648;BME280;17137;51.494;-0.262;2022-11-20T00:12:46;50544.12;;;-145.72;83.02
28648;BME280;17137;51.494;-0.262;2022-11-20T00:13:16;50545.48;;;-145.72;82.92
28648;BME280;17137;51.494;-0.262;2022-11-20T00:13:48;50536.97;;;-145.72;82.80
28648;BME280;17137;51.494;-0.262;2022-11-20T00:14:19;50528.34;;;-145.72;82.51
28648;BME280;17137;51.494;-0.262;2022-11-20T00:14:49;50537.09;;;-145.72;82.51
28648;BME280;17137;51.494;-0.262;2022-11-20T00:15:19;50536.72;;;-145.72;82.64
28648;BME280;17137;51.494;-0.262;2022-11-20T00:15:57;50549.55;;;-145.72;82.85
28648;BME280;17137;51.494;-0.262;2022-11-20T00:16:29;50547.57;;;-145.72;82.76
28648;BME280;17137;51.494;-0.262;2022-11-20T00:17:00;50532.53;;;-145.72;82.55
28648;BME280;17137;51.494;-0.262;2022-11-20T00:17:31;50544.74;;;-145.72;82.52
28648;BME280;17137;51.494;-0.262;2022-11-20T00:18:01;50541.78;;;-145.72;82.42
28648;BME280;17137;51.494;-0.262;2022-11-20T00:18:33;50540.67;;;-145.72;82.33
28648;BME280;17137;51.494;-0.262;2022-11-20T00:19:03;50534.01;;;-145.72;82.58
28648;BME280;17137;51.494;-0.262;2022-11-20T00:19:34;50545.72;;;-145.72;82.37
28648;BME280;17137;51.494;-0.262;2022-11-20T00:20:05;50543.50;;;-145.72;82.03
28648;BME280;17137;51.494;-0.262;2022-11-20T00:20:35;50542.27;;;-145.72;81.99
28648;BME280;17137;51.494;-0.262;2022-11-20T00:21:09;50543.50;;;-145.72;81.79
28648;BME280;17137;51.494;-0.262;2022-11-20T00:21:40;50540.92;;;-145.72;82.10
28648;BME280;17137;51.494;-0.262;2022-11-20T00:22:10;50545.85;;;-145.72;82.14
28648;BME280;17137;51.494;-0.262;2022-11-20T00:22:41;50544.12;;;-145.72;81.97
28648;BME280;17137;51.494;-0.262;2022-11-20T00:23:11;50553.00;;;-145.72;81.84
28648;BME280;17137;51.494;-0.262;2022-11-20T00:23:42;50542.15;;;-145.72;81.78
28648;BME280;17137;51.494;-0.262;2022-11-20T00:24:13;50542.52;;;-145.72;81.49
28648;BME280;17137;51.494;-0.262;2022-11-20T00:24:43;50529.94;;;-145.72;81.20
28648;BME280;17137;51.494;-0.262;2022-11-20T00:25:13;50533.52;;;-145.72;81.10
28648;BME280;17137;51.494;-0.262;2022-11-20T00:25:44;50532.53;;;-145.72;80.74
28648;BME280;17137;51.494;-0.262;2022-11-20T00:26:15;50531.05;;;-145.72;80.43
28648;BME280;17137;51.494;-0.262;2022-11-20T00:26:46;50533.52;;;-145.72;80.40
28648;BME280;17137;51.494;-0.262;2022-11-20T00:27:16;50548.44;;;-145.72;80.49
28648;BME280;17137;51.494;-0.262;2022-11-20T00:27:47;50543.38;;;-145.72;80.74
28648;BME280;17137;51.494;-0.262;2022-11-20T00:28:17;50545.97;;;-145.72;80.96
28648;BME280;17137;51.494;-0.262;2022-11-20T00:28:50;50531.92;;;-145.72;81.24
28648;BME280;17137;51.494;-0.262;2022-11-20T00:29:21;50544.61;;;-145.72;81.50
28648;BME280;17137;51.494;-0.262;2022-11-20T00:29:51;50557.56;;;-145.72;81.86
28648;BME280;17137;51.494;-0.262;2022-11-20T00:30:22;50543.01;;;-145.72;81.82
28648;BME280;17137;51.494;-0.262;2022-11-20T00:30:52;50543.75;;;-145.72;81.83
28648;BME280;17137;51.494;-0.262;2022-11-20T00:31:22;50535.86;;;-145.72;81.68
28648;BME280;17137;51.494;-0.262;2022-11-20T00:31:53;50540.42;;;-145.72;81.83
28648;BME280;17137;51.494;-0.262;2022-11-20T00:32:23;50559.04;;;-145.72;81.99
28648;BME280;17137;51.494;-0.262;2022-11-20T00:32:58;50561.63;;;-145.72;81.93
28648;BME280;17137;51.494;-0.262;2022-11-20T00:33:29;50544.49;;;-145.72;81.35
28648;BME280;17137;51.494;-0.262;2022-11-20T00:33:59;50546.46;;;-145.72;80.79
28648;BME280;17137;51.494;-0.262;2022-11-20T00:34:29;50532.41;;;-145.72;80.13
28648;BME280;17137;51.494;-0.262;2022-11-20T00:35:00;50541.29;;;-145.72;80.25
28648;BME280;17137;51.494;-0.262;2022-11-20T00:35:30;50542.89;;;-145.72;80.67
28648;BME280;17137;51.494;-0.262;2022-11-20T00:36:01;50535.98;;;-145.72;80.93
28648;BME280;17137;51.494;-0.262;2022-11-20T00:36:33;50551.15;;;-145.72;80.74
28648;BME280;17137;51.494;-0.262;2022-11-20T00:37:03;50547.45;;;-145.72;80.83
28648;BME280;17137;51.494;-0.262;2022-11-20T00:37:34;50555.83;;;-145.72;80.99
28648;BME280;17137;51.494;-0.262;2022-11-20T00:38:04;50542.52;;;-145.72;80.74
28648;BME280;17137;51.494;-0.262;2022-11-20T00:38:35;50547.57;;;-145.72;80.78
28648;BME280;17137;51.494;-0.262;2022-11-20T00:39:05;50548.93;;;-145.72;80.79
28648;BME280;17137;51.494;-0.262;2022-11-20T00:39:35;50545.48;;;-145.72;81.30
28648;BME280;17137;51.494;-0.262;2022-11-20T00:40:07;50540.55;;;-145.72;81.32
28648;BME280;17137;51.494;-0.262;2022-11-20T00:40:37;50542.39;;;-145.72;81.35
28648;BME280;17137;51.494;-0.262;2022-11-20T00:41:10;50539.93;;;-145.72;81.19
28648;BME280;17137;51.494;-0.262;2022-11-20T00:41:40;50548.81;;;-145.72;81.37
28648;BME280;17137;51.494;-0.262;2022-11-20T00:42:11;50554.85;;;-145.72;81.38
28648;BME280;17137;51.494;-0.262;2022-11-20T00:42:41;50549.91;;;-145.72;81.52
28648;BME280;17137;51.494;-0.262;2022-11-20T00:43:11;50556.45;;;-145.72;81.55
28648;BME280;17137;51.494;-0.262;2022-11-20T00:43:42;50542.27;;;-145.72;81.28
28648;BME280;17137;51.494;-0.262;2022-11-20T00:44:13;50553.12;;;-145.72;81.18
28648;BME280;17137;51.494;-0.262;2022-11-20T00:44:43;50549.18;;;-145.72;81.13
28648;BME280;17137;51.494;-0.262;2022-11-20T00:45:14;50546.96;;;-145.72;81.12
28648;BME280;17137;51.494;-0.262;2022-11-20T00:45:44;50532.41;;;-145.72;81.09
28648;BME280;17137;51.494;-0.262;2022-11-20T00:46:16;50540.18;;;-145.72;81.06
28648;BME280;17137;51.494;-0.262;2022-11-20T00:46:46;50551.64;;;-145.72;81.20
28648;BME280;17137;51.494;-0.262;2022-11-20T00:47:17;50544.61;;;-145.72;81.38
28648;BME280;17137;51.494;-0.262;2022-11-20T00:47:52;50537.46;;;-145.72;81.33
28648;BME280;17137;51.494;-0.262;2022-11-20T00:48:22;50545.11;;;-145.72;81.42
28648;BME280;17137;51.494;-0.262;2022-11-20T00:48:53;50538.20;;;-145.72;81.24
28648;BME280;17137;51.494;-0.262;2022-11-20T00:49:23;50543.50;;;-145.72;80.72
28648;BME280;17137;51.494;-0.262;2022-11-20T00:49:54;50538.57;;;-145.72;80.63
28648;BME280;17137;51.494;-0.262;2022-11-20T00:50:29;50531.67;;;-145.72;80.62
28648;BME280;17137;51.494;-0.262;2022-11-20T00:51:00;50539.19;;;-145.72;80.45
28648;BME280;17137;51.494;-0.262;2022-11-20T00:51:30;50530.93;;;-145.72;80.51
28648;BME280;17137;51.494;-0.262;2022-11-20T00:52:06;50521.44;;;-145.72;80.51
28648;BME280;17137;51.494;-0.262;2022-11-20T00:52:36;50537.59;;;-145.72;80.48
28648;BME280;17137;51.494;-0.262;2022-11-20T00:53:06;50533.89;;;-145.72;80.82
28648;BME280;17137;51.494;-0.262;2022-11-20T00:53:37;50537.83;;;-145.72;80.77
28648;BME280;17137;51.494;-0.262;2022-11-20T00:54:07;50548.07;;;-145.72;80.96
28648;BME280;17137;51.494;-0.262;2022-11-20T00:54:37;50545.35;;;-145.72;81.13
28648;BME280;17137;51.494;-0.262;2022-11-20T00:55:07;50542.64;;;-145.72;81.46
28648;BME280;17137;51.494;-0.262;2022-11-20T00:55:38;50543.75;;;-145.72;81.73
28648;BME280;17137;51.494;-0.262;2022-11-20T00:56:10;50531.92;;;-145.72;82.07
28648;BME280;17137;51.494;-0.262;2022-11-20T00:56:41;50540.67;;;-145.72;82.12
28648;BME280;17137;51.494;-0.262;2022-11-20T00:57:11;50548.93;;;-145.72;82.19
28648;BME280;17137;51.494;-0.262;2022-11-20T00:57:42;50539.93;;;-145.72;82.20
28648;BME280;17137;51.494;-0.262;2022-11-20T00:58:12;50547.33;;;-145.72;82.63
28648;BME280;17137;51.494;-0.262;2022-11-20T00:58:45;50541.90;;;-145.72;82.53
28648;BME280;17137;51.494;-0.262;2022-11-20T00:59:15;50539.56;;;-145.72;82.59
28648;BME280;17137;51.494;-0.262;2022-11-20T00:59:46;50530.68;;;-145.72;82.42
28648;BME280;17137;51.494;-0.262;2022-11-20T01:00:16;50541.66;;;-145.72;82.42
28648;BME280;17137;51.494;-0.262;2022-11-20T01:00:47;50532.16;;;-145.72;82.18
28648;BME280;17137;51.494;-0.262;2022-11-20T01:01:19;50539.31;;;-145.72;81.96
28648;BME280;17137;51.494;-0.262;2022-11-20T01:01:50;50542.39;;;-145.72;82.23
28648;BME280;17137;51.494;-0.262;2022-11-20T01:02:20;50533.40;;;-145.72;81.91
28648;BME280;17137;51.494;-0.262;2022-11-20T01:02:50;50534.01;;;-145.72;81.67
28648;BME280;17137;51.494;-0.262;2022-11-20T01:03:21;50543.26;;;-145.72;81.64
28648;BME280;17137;51.494;-0.262;2022-11-20T01:03:53;50533.15;;;-145.72;81.34
28648;BME280;17137;51.494;-0.262;2022-11-20T01:04:24;50532.90;;;-145.72;81.24
28648;BME280;17137;51.494;-0.262;2022-11-20T01:04:54;50540.55;;;-145.72;81.33
28648;BME280;17137;51.494;-0.262;2022-11-20T01:05:24;50543.26;;;-145.72;81.70
28648;BME280;17137;51.494;-0.262;2022-11-20T01:05:59;50543.01;;;-145.72;81.79
28648;BME280;17137;51.494;-0.262;2022-11-20T01:06:31;50535.98;;;-145.72;81.66
28648;BME280;17137;51.494;-0.262;2022-11-20T01:07:02;50542.03;;;-145.72;81.63
28648;BME280;17137;51.494;-0.262;2022-11-20T01:07:33;50535.61;;;-145.72;81.18
28648;BME280;17137;51.494;-0.262;2022-11-20T01:08:04;50530.44;;;-145.72;81.19
28648;BME280;17137;51.494;-0.262;2022-11-20T01:08:35;50539.81;;;-145.72;81.16
28648;BME280;17137;51.494;-0.262;2022-11-20T01:09:07;50535.00;;;-145.72;81.20
28648;BME280;17137;51.494;-0.262;2022-11-20T01:09:38;50547.45;;;-145.72;81.65
28648;BME280;17137;51.494;-0.262;2022-11-20T01:10:09;50540.42;;;-145.72;81.95
28648;BME280;17137;51.494;-0.262;2022-11-20T01:10:39;50552.26;;;-145.72;82.26
28648;BME280;17137;51.494;-0.262;2022-11-20T01:11:11;50569.76;;;-145.72;82.54
28648;BME280;17137;51.494;-0.262;2022-11-20T01:11:43;50562.24;;;-145.72;82.59
28648;BME280;17137;51.494;-0.262;2022-11-20T01:12:14;50552.75;;;-145.72;82.58
28648;BME280;17137;51.494;-0.262;2022-11-20T01:12:44;50555.09;;;-145.72;82.28
28648;BME280;17137;51.494;-0.262;2022-11-20T01:13:14;50549.18;;;-145.72;82.43
28648;BME280;17137;51.494;-0.262;2022-11-20T01:13:45;50548.19;;;-145.72;82.46
28648;BME280;17137;51.494;-0.262;2022-11-20T01:14:18;50548.81;;;-145.72;82.43
28648;BME280;17137;51.494;-0.262;2022-11-20T01:14:48;50547.20;;;-145.72;82.20
28648;BME280;17137;51.494;-0.262;2022-11-20T01:15:19;50544.12;;;-145.72;81.96
28648;BME280;17137;51.494;-0.262;2022-11-20T01:15:49;50542.89;;;-145.72;81.74
28648;BME280;17137;51.494;-0.262;2022-11-20T01:16:21;50546.09;;;-145.72;81.53
28648;BME280;17137;51.494;-0.262;2022-11-20T01:16:52;50535.24;;;-145.72;81.71
28648;BME280;17137;51.494;-0.262;2022-11-20T01:17:23;50537.09;;;-145.72;81.61
28648;BME280;17137;51.494;-0.262;2022-11-20T01:17:53;50537.34;;;-145.72;81.47
28648;BME280;17137;51.494;-0.262;2022-11-20T01:18:23;50533.89;;;-145.72;81.37
28648;BME280;17137;51.494;-0.262;2022-11-20T01:18:56;50531.05;;;-145.72;80.54
28648;BME280;17137;51.494;-0.262;2022-11-20T01:19:27;50544.00;;;-145.72;80.32
28648;BME280;17137;51.494;-0.262;2022-11-20T01:19:57;50535.74;;;-145.72;80.00
28648;BME280;17137;51.494;-0.262;2022-11-20T01:20:27;50526.99;;;-145.72;79.64
28648;BME280;17137;51.494;-0.262;2022-11-20T01:21:01;50525.38;;;-145.72;79.83
28648;BME280;17137;51.494;-0.262;2022-11-20T01:21:34;50543.13;;;-145.72;80.03
28648;BME280;17137;51.494;-0.262;2022-11-20T01:22:04;50535.00;;;-145.72;80.07
28648;BME280;17137;51.494;-0.262;2022-11-20T01:22:34;50538.57;;;-145.72;79.91
28648;BME280;17137;51.494;-0.262;2022-11-20T01:23:05;50547.57;;;-145.72;79.82
28648;BME280;17137;51.494;-0.262;2022-11-20T01:23:37;50535.24;;;-145.72;79.86
28648;BME280;17137;51.494;-0.262;2022-11-20T01:24:10;50539.93;;;-145.72;80.02
28648;BME280;17137;51.494;-0.262;2022-11-20T01:24:46;50526.86;;;-145.72;79.66
28648;BME280;17137;51.494;-0.262;2022-11-20T01:25:16;50536.35;;;-145.72;79.37
28648;BME280;17137;51.494;-0.262;2022-11-20T01:25:46;50543.87;;;-145.72;79.29
28648;BME280;17137;51.494;-0.262;2022-11-20T01:26:19;50534.01;;;-145.72;79.37
28648;BME280;17137;51.494;-0.262;2022-11-20T01:26:50;50527.73;;;-145.72;79.42
28648;BME280;17137;51.494;-0.262;2022-11-20T01:27:21;50536.48;;;-145.72;79.63
28648;BME280;17137;51.494;-0.262;2022-11-20T01:27:51;50537.59;;;-145.72;79.59
28648;BME280;17137;51.494;-0.262;2022-11-20T01:28:21;50535.49;;;-145.72;79.54
28648;BME280;17137;51.494;-0.262;2022-11-20T01:28:52;50535.24;;;-145.72;79.59
28648;BME280;17137;51.494;-0.262;2022-11-20T01:29:24;50536.97;;;-145.72;79.49
28648;BME280;17137;51.494;-0.262;2022-11-20T01:29:55;50541.78;;;-145.72;79.77
28648;BME280;17137;51.494;-0.262;2022-11-20T01:30:25;50544.24;;;-145.72;79.99
28648;BME280;17137;51.494;-0.262;2022-11-20T01:30:55;50532.90;;;-145.72;80.04
28648;BME280;17137;51.494;-0.262;2022-11-20T01:31:28;50540.92;;;-145.72;79.78
28648;BME280;17137;51.494;-0.262;2022-11-20T01:31:59;50547.20;;;-145.72;80.18
28648;BME280;17137;51.494;-0.262;2022-11-20T01:32:29;50542.64;;;-145.72;80.22
28648;BME280;17137;51.494;-0.262;2022-11-20T01:33:00;50539.68;;;-145.72;80.10
28648;BME280;17137;51.494;-0.262;2022-11-20T01:33:30;50547.20;;;-145.72;79.84
28648;BME280;17137;51.494;-0.262;2022-11-20T01:34:03;50535.61;;;-145.72;79.61
28648;BME280;17137;51.494;-0.262;2022-11-20T01:34:34;50547.45;;;-145.72;79.63
28648;BME280;17137;51.494;-0.262;2022-11-20T01:35:05;50541.29;;;-145.72;79.77
28648;BME280;17137;51.494;-0.262;2022-11-20T01:35:35;50548.56;;;-145.72;79.68
28648;BME280;17137;51.494;-0.262;2022-11-20T01:36:07;50536.85;;;-145.72;79.63
28648;BME280;17137;51.494;-0.262;2022-11-20T01:36:38;50542.89;;;-145.72;79.73
28648;BME280;17137;51.494;-0.262;2022-11-20T01:37:09;50545.48;;;-145.72;79.54
28648;BME280;17137;51.494;-0.262;2022-11-20T01:37:39;50549.30;;;-145.72;79.63
28648;BME280;17137;51.494;-0.262;2022-11-20T01:38:09;50554.97;;;-145.72;79.85
28648;BME280;17137;51.494;-0.262;2022-11-20T01:38:40;50552.87;;;-145.72;79.84
28648;BME280;17137;51.494;-0.262;2022-11-20T01:39:13;50547.45;;;-145.72;80.20
28648;BME280;17137;51.494;-0.262;2022-11-20T01:39:43;50558.42;;;-145.72;79.77
28648;BME280;17137;51.494;-0.262;2022-11-20T01:40:14;50558.30;;;-145.72;79.74
28648;BME280;17137;51.494;-0.262;2022-11-20T01:40:44;50550.04;;;-145.72;79.76
28648;BME280;17137;51.494;-0.262;2022-11-20T01:41:15;50554.85;;;-145.72;79.60
28648;BME280;17137;51.494;-0.262;2022-11-20T01:41:47;50555.46;;;-145.72;79.63
28648;BME280;17137;51.494;-0.262;2022-11-20T01:42:17;50555.34;;;-145.72;79.65
28648;BME280;17137;51.494;-0.262;2022-11-20T01:42:53;50556.33;;;-145.72;79.72
28648;BME280;17137;51.494;-0.262;2022-11-20T01:43:29;50553.86;;;-145.72;79.33
28648;BME280;17137;51.494;-0.262;2022-11-20T01:43:59;50563.23;;;-145.72;79.41
28648;BME280;17137;51.494;-0.262;2022-11-20T01:45:42;50563.35;;;-145.72;79.49
28648;BME280;17137;51.494;-0.262;2022-11-20T01:46:20;50545.97;;;-145.72;78.97
28648;BME280;17137;51.494;-0.262;2022-11-20T01:46:57;50555.46;;;-145.72;79.14
28648;BME280;17137;51.494;-0.262;2022-11-20T01:47:31;50553.12;;;-145.72;78.68
28648;BME280;17137;51.494;-0.262;2022-11-20T01:48:03;50551.15;;;-145.72;78.61
28648;BME280;17137;51.494;-0.262;2022-11-20T01:48:37;50556.33;;;-145.72;78.78
28648;BME280;17137;51.494;-0.262;2022-11-20T01:49:14;50555.83;;;-145.72;78.64
28648;BME280;17137;51.494;-0.262;2022-11-20T01:49:50;50558.79;;;-145.72;78.63
28648;BME280;17137;51.494;-0.262;2022-11-20T01:50:24;50546.96;;;-145.72;78.82
28648;BME280;17137;51.494;-0.262;2022-11-20T01:50:57;50553.00;;;-145.72;78.23
28648;BME280;17137;51.494;-0.262;2022-11-20T01:51:30;50556.82;;;-145.72;78.05
28648;BME280;17137;51.494;-0.262;2022-11-20T01:52:05;50553.00;;;-145.72;78.04
28648;BME280;17137;51.494;-0.262;2022-11-20T01:52:41;50551.52;;;-145.72;78.20
28648;BME280;17137;51.494;-0.262;2022-11-20T01:53:15;50550.16;;;-145.72;78.12
28648;BME280;17137;51.494;-0.262;2022-11-20T01:53:47;50552.50;;;-145.72;78.19
28648;BME280;17137;51.494;-0.262;2022-11-20T01:54:21;50551.89;;;-145.72;78.13
28648;BME280;17137;51.494;-0.262;2022-11-20T01:54:56;50552.63;;;-145.72;77.70
28648;BME280;17137;51.494;-0.262;2022-11-20T01:55:32;50537.46;;;-145.72;77.17
28648;BME280;17137;51.494;-0.262;2022-11-20T01:56:07;50560.76;;;-145.72;77.31
28648;BME280;17137;51.494;-0.262;2022-11-20T01:56:40;50547.08;;;-145.72;77.80
28648;BME280;17137;51.494;-0.262;2022-11-20T01:57:14;50553.74;;;-145.72;78.14
28648;BME280;17137;51.494;-0.262;2022-11-20T01:57:45;50545.72;;;-145.72;77.91
28648;BME280;17137;51.494;-0.262;2022-11-20T01:58:21;50563.35;;;-145.72;78.14
28648;BME280;17137;51.494;-0.262;2022-11-20T01:58:56;50558.17;;;-145.72;78.56
28648;BME280;17137;51.494;-0.262;2022-11-20T01:59:28;50549.79;;;-145.72;78.55
28648;BME280;17137;51.494;-0.262;2022-11-20T02:00:05;50558.17;;;-145.72;78.37
28648;BME280;17137;51.494;-0.262;2022-11-20T02:00:36;50541.41;;;-145.72;78.25
28648;BME280;17137;51.494;-0.262;2022-11-20T02:01:06;50544.37;;;-145.72;78.07
28648;BME280;17137;51.494;-0.262;2022-11-20T02:01:37;50552.75;;;-145.72;78.02
28648;BME280;17137;51.494;-0.262;2022-11-20T02:02:07;50559.41;;;-145.72;78.05
28648;BME280;17137;51.494;-0.262;2022-11-20T02:02:39;50558.54;;;-145.72;78.48
28648;BME280;17137;51.494;-0.262;2022-11-20T02:03:12;50551.52;;;-145.72;78.64
28648;BME280;17137;51.494;-0.262;2022-11-20T02:03:43;50554.23;;;-145.72;78.04
28648;BME280;17137;51.494;-0.262;2022-11-20T02:04:15;50542.76;;;-145.72;77.70
28648;BME280;17137;51.494;-0.262;2022-11-20T02:04:45;50553.24;;;-145.72;77.46
28648;BME280;17137;51.494;-0.262;2022-11-20T02:05:21;50553.00;;;-145.72;77.71
28648;BME280;17137;51.494;-0.262;2022-11-20T02:06:01;50555.22;;;-145.72;77.66
28648;BME280;17137;51.494;-0.262;2022-11-20T02:06:36;50548.44;;;-145.72;77.76
28648;BME280;17137;51.494;-0.262;2022-11-20T02:07:08;50549.91;;;-145.72;77.88
28648;BME280;17137;51.494;-0.262;2022-11-20T02:07:39;50554.85;;;-145.72;77.95
28648;BME280;17137;51.494;-0.262;2022-11-20T02:08:10;50542.52;;;-145.72;77.63
28648;BME280;17137;51.494;-0.262;2022-11-20T02:08:41;50553.12;;;-145.72;77.62
28648;BME280;17137;51.494;-0.262;2022-11-20T02:09:12;50555.71;;;-145.72;77.62
28648;BME280;17137;51.494;-0.262;2022-11-20T02:09:42;50541.41;;;-145.72;77.52
28648;BME280;17137;51.494;-0.262;2022-11-20T02:10:13;50554.97;;;-145.72;77.43
28648;BME280;17137;51.494;-0.262;2022-11-20T02:10:43;50556.94;;;-145.72;77.26
28648;BME280;17137;51.494;-0.262;2022-11-20T02:11:13;50553.24;;;-145.72;77.28
28648;BME280;17137;51.494;-0.262;2022-11-20T02:11:49;50540.42;;;-145.72;77.14
28648;BME280;17137;51.494;-0.262;2022-11-20T02:12:19;50550.04;;;-145.72;77.38
28648;BME280;17137;51.494;-0.262;2022-11-20T02:12:50;50546.46;;;-145.72;77.45
28648;BME280;17137;51.494;-0.262;2022-11-20T02:13:20;50558.05;;;-145.72;77.71
28648;BME280;17137;51.494;-0.262;2022-11-20T02:13:51;50541.16;;;-145.72;77.58
28648;BME280;17137;51.494;-0.262;2022-11-20T02:14:22;50547.45;;;-145.72;77.57
28648;BME280;17137;51.494;-0.262;2022-11-20T02:14:53;50536.23;;;-145.72;77.61
28648;BME280;17137;51.494;-0.262;2022-11-20T02:15:23;50546.71;;;-145.72;77.74
28648;BME280;17137;51.494;-0.262;2022-11-20T02:15:54;50544.49;;;-145.72;77.68
28648;BME280;17137;51.494;-0.262;2022-11-20T02:16:26;50545.72;;;-145.72;77.66
28648;BME280;17137;51.494;-0.262;2022-11-20T02:16:57;50535.37;;;-145.72;77.76
28648;BME280;17137;51.494;-0.262;2022-11-20T02:17:28;50549.42;;;-145.72;77.72
28648;BME280;17137;51.494;-0.262;2022-11-20T02:17:58;50541.90;;;-145.72;77.79
28648;BME280;17137;51.494;-0.262;2022-11-20T02:18:29;50557.06;;;-145.72;78.05
28648;BME280;17137;51.494;-0.262;2022-11-20T02:19:02;50553.37;;;-145.72;78.41
28648;BME280;17137;51.494;-0.262;2022-11-20T02:19:34;50542.39;;;-145.72;78.18
28648;BME280;17137;51.494;-0.262;2022-11-20T02:20:05;50538.70;;;-145.72;78.09
28648;BME280;17137;51.494;-0.262;2022-11-20T02:20:36;50549.05;;;-145.72;77.82
28648;BME280;17137;51.494;-0.262;2022-11-20T02:21:09;50545.60;;;-145.72;78.01
28648;BME280;17137;51.494;-0.262;2022-11-20T02:21:47;50539.19;;;-145.72;78.24
28648;BME280;17137;51.494;-0.262;2022-11-20T02:22:23;50549.42;;;-145.72;78.36
28648;BME280;17137;51.494;-0.262;2022-11-20T02:22:59;50565.69;;;-145.72;78.68
28648;BME280;17137;51.494;-0.262;2022-11-20T02:23:34;50552.13;;;-145.72;78.76
28648;BME280;17137;51.494;-0.262;2022-11-20T02:24:10;50543.87;;;-145.72;78.60
28648;BME280;17137;51.494;-0.262;2022-11-20T02:24:42;50547.08;;;-145.72;78.38
28648;BME280;17137;51.494;-0.262;2022-11-20T02:25:15;50542.39;;;-145.72;78.37
28648;BME280;17137;51.494;-0.262;2022-11-20T02:25:46;50543.01;;;-145.72;78.64
28648;BME280;17137;51.494;-0.262;2022-11-20T02:26:18;50544.86;;;-145.72;78.88
28648;BME280;17137;51.494;-0.262;2022-11-20T02:26:53;50540.92;;;-145.72;78.85
28648;BME280;17137;51.494;-0.262;2022-11-20T02:27:24;50548.44;;;-145.72;78.80
28648;BME280;17137;51.494;-0.262;2022-11-20T02:27:55;50551.15;;;-145.72;78.94
28648;BME280;17137;51.494;-0.262;2022-11-20T02:28:26;50538.20;;;-145.72;78.76
28648;BME280;17137;51.494;-0.262;2022-11-20T02:28:58;50552.87;;;-145.72;78.60
28648;BME280;17137;51.494;-0.262;2022-11-20T02:29:34;50551.76;;;-145.72;78.73
28648;BME280;17137;51.494;-0.262;2022-11-20T02:30:06;50546.71;;;-145.72;78.71
28648;BME280;17137;51.494;-0.262;2022-11-20T02:30:37;50542.52;;;-145.72;78.64
28648;BME280;17137;51.494;-0.262;2022-11-20T02:31:07;50545.97;;;-145.72;79.23
28648;BME280;17137;51.494;-0.262;2022-11-20T02:31:41;50555.59;;;-145.72;79.72
28648;BME280;17137;51.494;-0.262;2022-11-20T02:32:19;50556.70;;;-145.72;79.91
28648;BME280;17137;51.494;-0.262;2022-11-20T02:32:49;50556.33;;;-145.72;80.22
28648;BME280;17137;51.494;-0.262;2022-11-20T02:33:20;50559.41;;;-145.72;79.95
28648;BME280;17137;51.494;-0.262;2022-11-20T02:33:55;50550.78;;;-145.72;79.85
28648;BME280;17137;51.494;-0.262;2022-11-20T02:34:26;50554.97;;;-145.72;79.70
28648;BME280;17137;51.494;-0.262;2022-11-20T02:34:56;50537.71;;;-145.72;79.62
28648;BME280;17137;51.494;-0.262;2022-11-20T02:35:44;50554.72;;;-145.72;79.94
28648;BME280;17137;51.494;-0.262;2022-11-20T02:36:16;50556.20;;;-145.72;79.92
28648;BME280;17137;51.494;-0.262;2022-11-20T02:36:46;50544.61;;;-145.72;80.20
28648;BME280;17137;51.494;-0.262;2022-11-20T02:37:20;50569.15;;;-145.72;80.38
28648;BME280;17137;51.494;-0.262;2022-11-20T02:37:53;50552.01;;;-145.72;80.49
28648;BME280;17137;51.494;-0.262;2022-11-20T02:38:24;50565.94;;;-145.72;80.25
28648;BME280;17137;51.494;-0.262;2022-11-20T02:38:55;50549.55;;;-145.72;80.12
28648;BME280;17137;51.494;-0.262;2022-11-20T02:39:27;50562.98;;;-145.72;80.27
28648;BME280;17137;51.494;-0.262;2022-11-20T02:39:58;50552.26;;;-145.72;80.18
28648;BME280;17137;51.494;-0.262;2022-11-20T02:40:29;50546.96;;;-145.72;80.09
28648;BME280;17137;51.494;-0.262;2022-11-20T02:40:59;50559.16;;;-145.72;80.27
28648;BME280;17137;51.494;-0.262;2022-11-20T02:41:33;50559.90;;;-145.72;80.23
28648;BME280;17137;51.494;-0.262;2022-11-20T02:42:05;50533.64;;;-145.72;79.95
28648;BME280;17137;51.494;-0.262;2022-11-20T02:42:36;50536.60;;;-145.72;80.10